Terminal Aerodrome Forecast
Issued by NWS

Home | Current Version | Previous Version | Text Only | Print | Product List | Glossary Off
Versions: 1 2 3 4 5 6 7 8 9 10 11 12 13 14 15 16 17 18 19 20 21 22 23 24 25

000
FTUS45 KBOU 242336
TAFBJC
TAF
KBJC 242336Z 2500/2524 12007KT P6SM FEW100 SCT220
     FM250300 30007KT P6SM FEW120 SCT220
     FM251500 VRB06KT P6SM SCT220
     FM251900 14007KT P6SM FEW120 BKN220=

USA.gov is the U.S. government's official web portal to all federal, state and local government web resources and services.